sensor_id;sensor_type;location;lat;lon;timestamp;P1;durP1;ratioP1;P2;durP2;ratioP2
43626;SDS011;29217;52.586;13.442;2023-01-26T00:01:37;24.02;;;9.23;;
43626;SDS011;29217;52.586;13.442;2023-01-26T00:04:03;24.42;;;8.38;;
43626;SDS011;29217;52.586;13.442;2023-01-26T00:06:29;21.98;;;8.38;;
43626;SDS011;29217;52.586;13.442;2023-01-26T00:08:55;22.50;;;8.48;;
43626;SDS011;29217;52.586;13.442;2023-01-26T00:11:22;26.42;;;8.38;;
43626;SDS011;29217;52.586;13.442;2023-01-26T00:13:51;22.00;;;8.13;;
43626;SDS011;29217;52.586;13.442;2023-01-26T00:16:18;27.65;;;9.43;;
43626;SDS011;29217;52.586;13.442;2023-01-26T00:18:44;25.65;;;8.88;;
43626;SDS011;29217;52.586;13.442;2023-01-26T00:21:11;23.88;;;9.15;;
43626;SDS011;29217;52.586;13.442;2023-01-26T00:23:37;29.02;;;8.57;;
43626;SDS011;29217;52.586;13.442;2023-01-26T00:26:07;25.20;;;9.43;;
43626;SDS011;29217;52.586;13.442;2023-01-26T00:28:34;25.67;;;8.55;;
43626;SDS011;29217;52.586;13.442;2023-01-26T00:31:03;27.75;;;8.10;;
43626;SDS011;29217;52.586;13.442;2023-01-26T00:33:29;27.45;;;7.72;;
43626;SDS011;29217;52.586;13.442;2023-01-26T00:35:55;23.45;;;8.85;;
43626;SDS011;29217;52.586;13.442;2023-01-26T00:38:21;28.00;;;10.15;;
43626;SDS011;29217;52.586;13.442;2023-01-26T00:40:47;22.33;;;8.82;;
43626;SDS011;29217;52.586;13.442;2023-01-26T00:43:13;29.38;;;9.82;;
43626;SDS011;29217;52.586;13.442;2023-01-26T00:45:39;24.80;;;8.77;;
43626;SDS011;29217;52.586;13.442;2023-01-26T00:48:05;23.25;;;7.28;;
43626;SDS011;29217;52.586;13.442;2023-01-26T00:50:32;24.02;;;8.77;;
43626;SDS011;29217;52.586;13.442;2023-01-26T00:52:58;23.77;;;8.35;;
43626;SDS011;29217;52.586;13.442;2023-01-26T00:55:24;28.38;;;8.10;;
43626;SDS011;29217;52.586;13.442;2023-01-26T00:58:06;27.30;;;9.38;;
43626;SDS011;29217;52.586;13.442;2023-01-26T01:00:33;27.13;;;8.73;;
43626;SDS011;29217;52.586;13.442;2023-01-26T01:02:59;23.92;;;9.15;;
43626;SDS011;29217;52.586;13.442;2023-01-26T01:05:26;27.33;;;9.65;;
43626;SDS011;29217;52.586;13.442;2023-01-26T01:07:52;26.65;;;11.02;;
43626;SDS011;29217;52.586;13.442;2023-01-26T01:10:18;28.85;;;9.63;;
43626;SDS011;29217;52.586;13.442;2023-01-26T01:12:44;26.00;;;8.50;;
43626;SDS011;29217;52.586;13.442;2023-01-26T01:15:10;28.83;;;9.68;;
43626;SDS011;29217;52.586;13.442;2023-01-26T01:17:36;23.02;;;8.80;;
43626;SDS011;29217;52.586;13.442;2023-01-26T01:20:03;23.98;;;9.23;;
43626;SDS011;29217;52.586;13.442;2023-01-26T01:22:30;26.33;;;8.52;;
43626;SDS011;29217;52.586;13.442;2023-01-26T01:24:56;22.45;;;8.15;;
43626;SDS011;29217;52.586;13.442;2023-01-26T01:27:22;29.10;;;9.07;;
43626;SDS011;29217;52.586;13.442;2023-01-26T01:29:51;24.55;;;9.98;;
43626;SDS011;29217;52.586;13.442;2023-01-26T01:32:17;22.95;;;9.63;;
43626;SDS011;29217;52.586;13.442;2023-01-26T01:34:46;29.13;;;9.70;;
43626;SDS011;29217;52.586;13.442;2023-01-26T01:37:13;31.73;;;10.07;;
43626;SDS011;29217;52.586;13.442;2023-01-26T01:39:39;26.65;;;10.05;;
43626;SDS011;29217;52.586;13.442;2023-01-26T01:42:05;23.70;;;9.05;;
43626;SDS011;29217;52.586;13.442;2023-01-26T01:44:34;25.92;;;9.57;;
43626;SDS011;29217;52.586;13.442;2023-01-26T01:47:01;21.98;;;8.05;;
43626;SDS011;29217;52.586;13.442;2023-01-26T01:49:32;20.98;;;8.05;;
43626;SDS011;29217;52.586;13.442;2023-01-26T01:54:27;23.02;;;9.35;;
43626;SDS011;29217;52.586;13.442;2023-01-26T01:56:55;23.15;;;8.45;;
43626;SDS011;29217;52.586;13.442;2023-01-26T01:59:22;27.48;;;8.82;;
43626;SDS011;29217;52.586;13.442;2023-01-26T02:01:49;22.40;;;8.75;;
43626;SDS011;29217;52.586;13.442;2023-01-26T02:04:16;18.30;;;7.82;;
43626;SDS011;29217;52.586;13.442;2023-01-26T02:06:46;20.33;;;8.23;;
43626;SDS011;29217;52.586;13.442;2023-01-26T02:09:13;20.05;;;8.65;;
43626;SDS011;29217;52.586;13.442;2023-01-26T02:14:49;22.40;;;7.63;;
43626;SDS011;29217;52.586;13.442;2023-01-26T02:17:16;21.92;;;8.68;;
43626;SDS011;29217;52.586;13.442;2023-01-26T02:22:33;21.23;;;8.10;;
43626;SDS011;29217;52.586;13.442;2023-01-26T02:25:07;17.58;;;8.50;;
43626;SDS011;29217;52.586;13.442;2023-01-26T02:27:36;22.90;;;8.20;;
43626;SDS011;29217;52.586;13.442;2023-01-26T02:30:02;16.25;;;8.30;;
43626;SDS011;29217;52.586;13.442;2023-01-26T02:32:29;21.00;;;8.02;;
43626;SDS011;29217;52.586;13.442;2023-01-26T02:34:55;20.08;;;7.32;;
43626;SDS011;29217;52.586;13.442;2023-01-26T02:37:22;18.63;;;7.10;;
43626;SDS011;29217;52.586;13.442;2023-01-26T02:39:55;27.98;;;8.40;;
43626;SDS011;29217;52.586;13.442;2023-01-26T02:42:24;21.98;;;8.30;;
43626;SDS011;29217;52.586;13.442;2023-01-26T02:45:03;26.10;;;9.10;;
43626;SDS011;29217;52.586;13.442;2023-01-26T02:47:29;25.67;;;11.02;;
43626;SDS011;29217;52.586;13.442;2023-01-26T02:49:55;31.13;;;10.95;;
43626;SDS011;29217;52.586;13.442;2023-01-26T02:52:26;24.80;;;8.73;;
43626;SDS011;29217;52.586;13.442;2023-01-26T02:54:53;22.55;;;9.13;;
43626;SDS011;29217;52.586;13.442;2023-01-26T02:57:38;23.75;;;9.48;;
43626;SDS011;29217;52.586;13.442;2023-01-26T03:00:06;27.83;;;9.80;;
43626;SDS011;29217;52.586;13.442;2023-01-26T03:02:32;22.98;;;8.98;;
43626;SDS011;29217;52.586;13.442;2023-01-26T03:04:58;24.95;;;9.02;;
43626;SDS011;29217;52.586;13.442;2023-01-26T03:07:24;26.92;;;9.80;;
43626;SDS011;29217;52.586;13.442;2023-01-26T03:09:50;25.85;;;9.35;;
43626;SDS011;29217;52.586;13.442;2023-01-26T03:12:16;24.27;;;8.00;;
43626;SDS011;29217;52.586;13.442;2023-01-26T03:14:42;22.60;;;8.93;;
43626;SDS011;29217;52.586;13.442;2023-01-26T03:17:08;24.77;;;8.88;;
43626;SDS011;29217;52.586;13.442;2023-01-26T03:19:34;28.42;;;9.82;;
43626;SDS011;29217;52.586;13.442;2023-01-26T03:22:18;30.02;;;9.23;;
43626;SDS011;29217;52.586;13.442;2023-01-26T03:25:03;22.40;;;9.00;;
43626;SDS011;29217;52.586;13.442;2023-01-26T03:27:47;21.23;;;8.80;;
43626;SDS011;29217;52.586;13.442;2023-01-26T03:30:15;22.50;;;8.98;;
43626;SDS011;29217;52.586;13.442;2023-01-26T03:32:41;20.83;;;8.20;;
43626;SDS011;29217;52.586;13.442;2023-01-26T03:35:07;23.73;;;8.80;;
43626;SDS011;29217;52.586;13.442;2023-01-26T03:37:42;22.45;;;8.70;;
43626;SDS011;29217;52.586;13.442;2023-01-26T03:40:09;26.75;;;9.95;;
43626;SDS011;29217;52.586;13.442;2023-01-26T03:42:53;24.60;;;9.88;;
43626;SDS011;29217;52.586;13.442;2023-01-26T03:45:38;21.70;;;9.88;;
43626;SDS011;29217;52.586;13.442;2023-01-26T03:48:22;21.27;;;8.88;;
43626;SDS011;29217;52.586;13.442;2023-01-26T03:51:07;21.27;;;8.02;;
43626;SDS011;29217;52.586;13.442;2023-01-26T03:53:52;19.38;;;8.30;;
43626;SDS011;29217;52.586;13.442;2023-01-26T03:56:36;20.33;;;9.35;;
43626;SDS011;29217;52.586;13.442;2023-01-26T03:59:03;29.92;;;9.75;;
43626;SDS011;29217;52.586;13.442;2023-01-26T04:01:36;23.60;;;9.63;;
43626;SDS011;29217;52.586;13.442;2023-01-26T04:04:03;23.15;;;9.63;;
43626;SDS011;29217;52.586;13.442;2023-01-26T04:06:48;20.83;;;9.07;;
43626;SDS011;29217;52.586;13.442;2023-01-26T04:09:33;26.70;;;10.00;;
43626;SDS011;29217;52.586;13.442;2023-01-26T04:12:00;28.55;;;9.45;;
43626;SDS011;29217;52.586;13.442;2023-01-26T04:14:26;26.38;;;9.57;;
43626;SDS011;29217;52.586;13.442;2023-01-26T04:17:11;26.10;;;9.27;;
43626;SDS011;29217;52.586;13.442;2023-01-26T04:19:55;24.38;;;7.93;;
43626;SDS011;29217;52.586;13.442;2023-01-26T04:22:40;22.52;;;9.05;;
43626;SDS011;29217;52.586;13.442;2023-01-26T04:25:10;26.67;;;8.38;;
43626;SDS011;29217;52.586;13.442;2023-01-26T04:27:37;27.73;;;8.85;;
43626;SDS011;29217;52.586;13.442;2023-01-26T04:30:03;28.05;;;8.80;;
43626;SDS011;29217;52.586;13.442;2023-01-26T04:32:29;25.92;;;9.05;;
43626;SDS011;29217;52.586;13.442;2023-01-26T04:34:55;27.67;;;9.45;;
43626;SDS011;29217;52.586;13.442;2023-01-26T04:37:21;28.42;;;9.85;;
43626;SDS011;29217;52.586;13.442;2023-01-26T04:39:47;24.27;;;9.38;;
43626;SDS011;29217;52.586;13.442;2023-01-26T04:42:13;23.15;;;8.30;;
43626;SDS011;29217;52.586;13.442;2023-01-26T04:44:39;24.95;;;9.10;;
43626;SDS011;29217;52.586;13.442;2023-01-26T04:47:05;27.30;;;9.30;;
43626;SDS011;29217;52.586;13.442;2023-01-26T04:49:31;24.02;;;8.55;;
43626;SDS011;29217;52.586;13.442;2023-01-26T04:51:57;24.42;;;8.68;;
43626;SDS011;29217;52.586;13.442;2023-01-26T04:54:23;27.83;;;9.43;;
43626;SDS011;29217;52.586;13.442;2023-01-26T04:56:49;32.05;;;8.60;;
43626;SDS011;29217;52.586;13.442;2023-01-26T04:59:15;26.67;;;8.10;;
43626;SDS011;29217;52.586;13.442;2023-01-26T05:01:41;23.27;;;8.68;;
43626;SDS011;29217;52.586;13.442;2023-01-26T05:04:09;29.73;;;8.60;;
43626;SDS011;29217;52.586;13.442;2023-01-26T05:06:35;21.65;;;9.00;;
43626;SDS011;29217;52.586;13.442;2023-01-26T05:09:02;24.83;;;8.60;;
43626;SDS011;29217;52.586;13.442;2023-01-26T05:11:28;21.77;;;8.55;;
43626;SDS011;29217;52.586;13.442;2023-01-26T05:13:54;21.77;;;8.45;;
43626;SDS011;29217;52.586;13.442;2023-01-26T05:16:20;25.58;;;8.95;;
43626;SDS011;29217;52.586;13.442;2023-01-26T05:18:46;25.00;;;8.85;;
43626;SDS011;29217;52.586;13.442;2023-01-26T05:21:12;28.85;;;9.35;;
43626;SDS011;29217;52.586;13.442;2023-01-26T05:23:38;24.48;;;8.65;;
43626;SDS011;29217;52.586;13.442;2023-01-26T05:26:04;24.17;;;8.88;;
43626;SDS011;29217;52.586;13.442;2023-01-26T05:28:30;20.25;;;8.05;;
43626;SDS011;29217;52.586;13.442;2023-01-26T05:30:56;21.00;;;7.65;;
43626;SDS011;29217;52.586;13.442;2023-01-26T05:33:22;23.20;;;9.45;;
43626;SDS011;29217;52.586;13.442;2023-01-26T05:35:48;21.90;;;8.18;;
43626;SDS011;29217;52.586;13.442;2023-01-26T05:38:14;25.05;;;8.63;;
43626;SDS011;29217;52.586;13.442;2023-01-26T05:40:40;23.08;;;8.95;;
43626;SDS011;29217;52.586;13.442;2023-01-26T05:43:06;23.38;;;8.65;;
43626;SDS011;29217;52.586;13.442;2023-01-26T05:45:33;21.25;;;7.72;;
43626;SDS011;29217;52.586;13.442;2023-01-26T05:47:58;22.05;;;9.20;;
43626;SDS011;29217;52.586;13.442;2023-01-26T05:50:25;20.63;;;8.20;;
43626;SDS011;29217;52.586;13.442;2023-01-26T05:52:51;22.35;;;8.90;;
43626;SDS011;29217;52.586;13.442;2023-01-26T05:55:17;20.35;;;9.15;;
43626;SDS011;29217;52.586;13.442;2023-01-26T05:57:43;27.83;;;9.68;;
43626;SDS011;29217;52.586;13.442;2023-01-26T06:00:09;25.27;;;9.50;;
43626;SDS011;29217;52.586;13.442;2023-01-26T06:02:36;24.10;;;8.52;;
43626;SDS011;29217;52.586;13.442;2023-01-26T06:05:02;24.92;;;9.23;;
43626;SDS011;29217;52.586;13.442;2023-01-26T06:07:28;21.77;;;8.40;;
43626;SDS011;29217;52.586;13.442;2023-01-26T06:09:54;25.15;;;8.43;;
43626;SDS011;29217;52.586;13.442;2023-01-26T06:12:20;24.92;;;9.55;;
43626;SDS011;29217;52.586;13.442;2023-01-26T06:14:46;26.85;;;9.45;;
43626;SDS011;29217;52.586;13.442;2023-01-26T06:17:13;19.92;;;8.15;;
43626;SDS011;29217;52.586;13.442;2023-01-26T06:19:39;18.77;;;7.43;;
43626;SDS011;29217;52.586;13.442;2023-01-26T06:22:11;22.02;;;8.07;;
43626;SDS011;29217;52.586;13.442;2023-01-26T06:24:38;17.90;;;7.25;;
43626;SDS011;29217;52.586;13.442;2023-01-26T06:27:05;13.00;;;6.20;;
43626;SDS011;29217;52.586;13.442;2023-01-26T06:29:32;15.95;;;7.00;;
43626;SDS011;29217;52.586;13.442;2023-01-26T06:31:58;17.17;;;7.13;;
43626;SDS011;29217;52.586;13.442;2023-01-26T06:34:24;21.75;;;7.78;;
43626;SDS011;29217;52.586;13.442;2023-01-26T06:36:50;15.85;;;7.40;;
43626;SDS011;29217;52.586;13.442;2023-01-26T06:39:16;22.42;;;7.20;;
43626;SDS011;29217;52.586;13.442;2023-01-26T06:41:42;18.52;;;7.47;;
43626;SDS011;29217;52.586;13.442;2023-01-26T06:44:08;17.80;;;7.40;;
43626;SDS011;29217;52.586;13.442;2023-01-26T06:46:34;17.67;;;6.70;;
43626;SDS011;29217;52.586;13.442;2023-01-26T06:49:01;21.77;;;6.95;;
43626;SDS011;29217;52.586;13.442;2023-01-26T06:51:38;19.20;;;6.68;;
43626;SDS011;29217;52.586;13.442;2023-01-26T06:54:07;20.02;;;7.15;;
43626;SDS011;29217;52.586;13.442;2023-01-26T06:56:34;21.48;;;7.32;;
43626;SDS011;29217;52.586;13.442;2023-01-26T06:59:00;23.73;;;8.68;;
43626;SDS011;29217;52.586;13.442;2023-01-26T07:01:26;23.50;;;8.00;;
43626;SDS011;29217;52.586;13.442;2023-01-26T07:03:52;23.80;;;6.80;;
43626;SDS011;29217;52.586;13.442;2023-01-26T07:06:19;21.00;;;7.53;;
43626;SDS011;29217;52.586;13.442;2023-01-26T07:08:45;20.20;;;7.05;;
43626;SDS011;29217;52.586;13.442;2023-01-26T07:11:11;17.15;;;7.22;;
43626;SDS011;29217;52.586;13.442;2023-01-26T07:13:38;20.27;;;7.75;;
43626;SDS011;29217;52.586;13.442;2023-01-26T07:16:07;16.95;;;6.25;;
43626;SDS011;29217;52.586;13.442;2023-01-26T07:18:33;15.43;;;6.40;;
43626;SDS011;29217;52.586;13.442;2023-01-26T07:20:59;15.15;;;6.25;;
43626;SDS011;29217;52.586;13.442;2023-01-26T07:23:25;17.98;;;6.22;;
43626;SDS011;29217;52.586;13.442;2023-01-26T07:25:51;18.40;;;6.80;;
43626;SDS011;29217;52.586;13.442;2023-01-26T07:28:17;19.00;;;7.57;;
43626;SDS011;29217;52.586;13.442;2023-01-26T07:30:43;17.30;;;7.00;;
43626;SDS011;29217;52.586;13.442;2023-01-26T07:33:09;14.73;;;5.75;;
43626;SDS011;29217;52.586;13.442;2023-01-26T07:35:35;18.23;;;6.93;;
43626;SDS011;29217;52.586;13.442;2023-01-26T07:38:04;14.85;;;5.78;;
43626;SDS011;29217;52.586;13.442;2023-01-26T07:40:31;18.38;;;6.28;;
43626;SDS011;29217;52.586;13.442;2023-01-26T07:42:57;14.75;;;6.25;;
43626;SDS011;29217;52.586;13.442;2023-01-26T07:45:26;13.77;;;5.13;;
43626;SDS011;29217;52.586;13.442;2023-01-26T07:47:56;14.10;;;5.60;;
43626;SDS011;29217;52.586;13.442;2023-01-26T07:50:22;12.55;;;5.72;;
43626;SDS011;29217;52.586;13.442;2023-01-26T07:52:49;12.70;;;5.95;;
43626;SDS011;29217;52.586;13.442;2023-01-26T07:55:19;25.55;;;7.28;;
43626;SDS011;29217;52.586;13.442;2023-01-26T07:57:48;14.10;;;6.13;;
43626;SDS011;29217;52.586;13.442;2023-01-26T08:00:14;13.85;;;5.63;;
43626;SDS011;29217;52.586;13.442;2023-01-26T08:02:40;13.73;;;6.07;;
43626;SDS011;29217;52.586;13.442;2023-01-26T08:05:07;11.05;;;5.07;;
43626;SDS011;29217;52.586;13.442;2023-01-26T08:07:33;16.02;;;5.88;;
43626;SDS011;29217;52.586;13.442;2023-01-26T08:09:59;14.18;;;6.18;;
43626;SDS011;29217;52.586;13.442;2023-01-26T08:12:25;13.63;;;6.07;;
43626;SDS011;29217;52.586;13.442;2023-01-26T08:14:51;15.65;;;5.63;;
43626;SDS011;29217;52.586;13.442;2023-01-26T08:17:17;14.07;;;6.28;;
43626;SDS011;29217;52.586;13.442;2023-01-26T08:19:43;16.58;;;6.25;;
43626;SDS011;29217;52.586;13.442;2023-01-26T08:22:09;14.50;;;6.10;;
43626;SDS011;29217;52.586;13.442;2023-01-26T08:24:35;17.73;;;6.95;;
43626;SDS011;29217;52.586;13.442;2023-01-26T08:27:01;14.82;;;6.20;;
43626;SDS011;29217;52.586;13.442;2023-01-26T08:29:27;16.10;;;6.82;;
43626;SDS011;29217;52.586;13.442;2023-01-26T08:31:53;16.92;;;6.57;;
43626;SDS011;29217;52.586;13.442;2023-01-26T08:34:19;15.80;;;6.93;;
43626;SDS011;29217;52.586;13.442;2023-01-26T08:36:50;16.00;;;6.40;;
43626;SDS011;29217;52.586;13.442;2023-01-26T08:39:16;17.48;;;5.40;;
43626;SDS011;29217;52.586;13.442;2023-01-26T08:41:42;13.80;;;5.70;;
43626;SDS011;29217;52.586;13.442;2023-01-26T08:44:09;15.02;;;5.50;;
43626;SDS011;29217;52.586;13.442;2023-01-26T08:46:35;14.65;;;5.50;;
43626;SDS011;29217;52.586;13.442;2023-01-26T08:49:01;12.13;;;5.68;;
43626;SDS011;29217;52.586;13.442;2023-01-26T08:51:27;10.98;;;4.60;;
43626;SDS011;29217;52.586;13.442;2023-01-26T08:53:53;11.15;;;5.32;;
43626;SDS011;29217;52.586;13.442;2023-01-26T08:56:19;15.70;;;6.28;;
43626;SDS011;29217;52.586;13.442;2023-01-26T08:58:45;17.83;;;7.78;;
43626;SDS011;29217;52.586;13.442;2023-01-26T09:01:12;18.90;;;7.85;;
43626;SDS011;29217;52.586;13.442;2023-01-26T09:03:38;12.30;;;5.97;;
43626;SDS011;29217;52.586;13.442;2023-01-26T09:06:05;12.18;;;6.35;;
43626;SDS011;29217;52.586;13.442;2023-01-26T09:08:32;11.63;;;6.07;;
43626;SDS011;29217;52.586;13.442;2023-01-26T09:10:58;14.85;;;7.03;;
43626;SDS011;29217;52.586;13.442;2023-01-26T09:13:24;12.60;;;5.95;;
43626;SDS011;29217;52.586;13.442;2023-01-26T09:15:50;13.70;;;5.88;;
43626;SDS011;29217;52.586;13.442;2023-01-26T09:18:16;15.07;;;6.25;;
43626;SDS011;29217;52.586;13.442;2023-01-26T09:20:42;10.05;;;5.43;;
43626;SDS011;29217;52.586;13.442;2023-01-26T09:23:09;18.50;;;6.65;;
43626;SDS011;29217;52.586;13.442;2023-01-26T09:25:36;15.50;;;6.55;;
43626;SDS011;29217;52.586;13.442;2023-01-26T09:28:03;14.60;;;6.88;;
43626;SDS011;29217;52.586;13.442;2023-01-26T09:30:29;18.13;;;7.25;;
43626;SDS011;29217;52.586;13.442;2023-01-26T09:32:58;17.23;;;6.90;;
43626;SDS011;29217;52.586;13.442;2023-01-26T09:35:25;17.17;;;6.70;;
43626;SDS011;29217;52.586;13.442;2023-01-26T09:37:51;14.90;;;6.78;;
43626;SDS011;29217;52.586;13.442;2023-01-26T09:40:18;17.25;;;7.88;;
43626;SDS011;29217;52.586;13.442;2023-01-26T09:43:03;17.55;;;7.63;;
43626;SDS011;29217;52.586;13.442;2023-01-26T09:45:44;17.73;;;7.97;;
43626;SDS011;29217;52.586;13.442;2023-01-26T09:48:34;15.25;;;6.53;;
43626;SDS011;29217;52.586;13.442;2023-01-26T09:51:11;15.73;;;6.95;;
43626;SDS011;29217;52.586;13.442;2023-01-26T09:53:43;17.50;;;7.80;;
43626;SDS011;29217;52.586;13.442;2023-01-26T09:56:18;14.73;;;7.40;;
43626;SDS011;29217;52.586;13.442;2023-01-26T09:58:58;15.38;;;6.88;;
43626;SDS011;29217;52.586;13.442;2023-01-26T10:01:28;13.15;;;6.22;;
43626;SDS011;29217;52.586;13.442;2023-01-26T10:03:59;23.20;;;8.13;;
43626;SDS011;29217;52.586;13.442;2023-01-26T10:06:26;19.08;;;7.38;;
43626;SDS011;29217;52.586;13.442;2023-01-26T10:08:54;22.80;;;7.32;;
43626;SDS011;29217;52.586;13.442;2023-01-26T10:11:24;17.02;;;7.95;;
43626;SDS011;29217;52.586;13.442;2023-01-26T10:13:59;18.15;;;8.70;;
43626;SDS011;29217;52.586;13.442;2023-01-26T10:16:26;16.02;;;7.82;;
43626;SDS011;29217;52.586;13.442;2023-01-26T10:18:57;18.40;;;8.27;;
43626;SDS011;29217;52.586;13.442;2023-01-26T10:21:25;20.05;;;7.93;;
43626;SDS011;29217;52.586;13.442;2023-01-26T10:23:55;18.65;;;7.60;;
43626;SDS011;29217;52.586;13.442;2023-01-26T10:26:26;19.55;;;8.90;;
43626;SDS011;29217;52.586;13.442;2023-01-26T10:28:54;16.45;;;8.60;;
43626;SDS011;29217;52.586;13.442;2023-01-26T10:31:22;19.45;;;7.78;;
43626;SDS011;29217;52.586;13.442;2023-01-26T10:33:52;14.60;;;7.25;;
43626;SDS011;29217;52.586;13.442;2023-01-26T10:36:18;16.23;;;7.00;;
43626;SDS011;29217;52.586;13.442;2023-01-26T10:38:45;16.88;;;7.55;;
43626;SDS011;29217;52.586;13.442;2023-01-26T10:44:02;17.23;;;7.63;;
43626;SDS011;29217;52.586;13.442;2023-01-26T10:46:39;15.63;;;6.75;;
43626;SDS011;29217;52.586;13.442;2023-01-26T10:51:42;17.55;;;7.68;;
43626;SDS011;29217;52.586;13.442;2023-01-26T10:59:36;17.65;;;7.32;;
43626;SDS011;29217;52.586;13.442;2023-01-26T11:07:27;19.73;;;7.88;;
43626;SDS011;29217;52.586;13.442;2023-01-26T11:09:53;22.35;;;8.10;;
43626;SDS011;29217;52.586;13.442;2023-01-26T11:12:20;18.25;;;7.50;;
43626;SDS011;29217;52.586;13.442;2023-01-26T11:14:58;19.23;;;8.52;;
43626;SDS011;29217;52.586;13.442;2023-01-26T11:17:24;16.90;;;7.97;;
43626;SDS011;29217;52.586;13.442;2023-01-26T11:20:04;18.35;;;6.82;;
43626;SDS011;29217;52.586;13.442;2023-01-26T11:25:03;13.80;;;6.63;;
43626;SDS011;29217;52.586;13.442;2023-01-26T11:32:49;12.80;;;5.95;;
43626;SDS011;29217;52.586;13.442;2023-01-26T11:48:19;15.13;;;5.95;;
43626;SDS011;29217;52.586;13.442;2023-01-26T11:50:53;14.93;;;6.28;;
43626;SDS011;29217;52.586;13.442;2023-01-26T11:53:27;13.18;;;6.20;;
43626;SDS011;29217;52.586;13.442;2023-01-26T11:56:04;13.93;;;5.80;;
43626;SDS011;29217;52.586;13.442;2023-01-26T12:01:27;15.85;;;6.78;;
43626;SDS011;29217;52.586;13.442;2023-01-26T12:03:54;12.48;;;6.32;;
43626;SDS011;29217;52.586;13.442;2023-01-26T12:08:57;12.25;;;5.88;;
43626;SDS011;29217;52.586;13.442;2023-01-26T12:11:27;14.00;;;5.43;;
43626;SDS011;29217;52.586;13.442;2023-01-26T12:19:31;12.65;;;5.30;;
43626;SDS011;29217;52.586;13.442;2023-01-26T12:22:04;8.65;;;4.50;;
43626;SDS011;29217;52.586;13.442;2023-01-26T12:24:35;10.95;;;5.50;;
43626;SDS011;29217;52.586;13.442;2023-01-26T12:27:04;12.32;;;6.15;;
43626;SDS011;29217;52.586;13.442;2023-01-26T12:29:37;12.02;;;5.63;;
43626;SDS011;29217;52.586;13.442;2023-01-26T12:32:09;12.35;;;6.38;;
43626;SDS011;29217;52.586;13.442;2023-01-26T12:34:36;13.18;;;5.97;;
43626;SDS011;29217;52.586;13.442;2023-01-26T12:39:44;11.00;;;5.90;;
43626;SDS011;29217;52.586;13.442;2023-01-26T12:44:57;12.40;;;6.28;;
43626;SDS011;29217;52.586;13.442;2023-01-26T12:57:28;10.40;;;5.22;;
43626;SDS011;29217;52.586;13.442;2023-01-26T13:00:03;11.98;;;5.85;;
43626;SDS011;29217;52.586;13.442;2023-01-26T13:02:30;9.50;;;5.07;;
43626;SDS011;29217;52.586;13.442;2023-01-26T13:04:59;10.80;;;5.20;;
43626;SDS011;29217;52.586;13.442;2023-01-26T13:07:37;9.27;;;4.90;;
43626;SDS011;29217;52.586;13.442;2023-01-26T13:15:18;10.65;;;5.70;;
43626;SDS011;29217;52.586;13.442;2023-01-26T13:22:49;8.48;;;4.88;;
43626;SDS011;29217;52.586;13.442;2023-01-26T13:25:19;12.90;;;5.93;;
43626;SDS011;29217;52.586;13.442;2023-01-26T13:27:58;10.35;;;5.13;;
43626;SDS011;29217;52.586;13.442;2023-01-26T13:32:52;12.50;;;6.45;;
43626;SDS011;29217;52.586;13.442;2023-01-26T13:35:20;12.27;;;5.82;;
43626;SDS011;29217;52.586;13.442;2023-01-26T13:37:58;9.50;;;5.45;;
43626;SDS011;29217;52.586;13.442;2023-01-26T13:40:27;12.43;;;5.15;;
43626;SDS011;29217;52.586;13.442;2023-01-26T13:43:18;11.05;;;5.43;;
43626;SDS011;29217;52.586;13.442;2023-01-26T13:45:49;13.18;;;6.28;;
43626;SDS011;29217;52.586;13.442;2023-01-26T13:48:29;13.88;;;6.53;;
43626;SDS011;29217;52.586;13.442;2023-01-26T13:51:00;9.05;;;5.15;;
43626;SDS011;29217;52.586;13.442;2023-01-26T13:53:29;16.95;;;8.07;;
43626;SDS011;29217;52.586;13.442;2023-01-26T13:55:57;12.05;;;6.35;;
43626;SDS011;29217;52.586;13.442;2023-01-26T13:58:24;12.73;;;6.00;;
43626;SDS011;29217;52.586;13.442;2023-01-26T14:01:02;10.52;;;5.82;;
43626;SDS011;29217;52.586;13.442;2023-01-26T14:03:28;13.60;;;6.63;;
43626;SDS011;29217;52.586;13.442;2023-01-26T14:08:53;12.30;;;6.25;;
43626;SDS011;29217;52.586;13.442;2023-01-26T14:11:20;16.88;;;6.72;;
43626;SDS011;29217;52.586;13.442;2023-01-26T14:13:49;14.15;;;6.57;;
43626;SDS011;29217;52.586;13.442;2023-01-26T14:16:27;14.30;;;6.95;;
43626;SDS011;29217;52.586;13.442;2023-01-26T14:19:02;17.83;;;7.25;;
43626;SDS011;29217;52.586;13.442;2023-01-26T14:21:29;19.75;;;7.22;;
43626;SDS011;29217;52.586;13.442;2023-01-26T14:23:57;14.90;;;6.25;;
43626;SDS011;29217;52.586;13.442;2023-01-26T14:26:29;14.70;;;6.80;;
43626;SDS011;29217;52.586;13.442;2023-01-26T14:28:56;17.67;;;7.70;;
43626;SDS011;29217;52.586;13.442;2023-01-26T14:31:24;16.05;;;6.65;;
43626;SDS011;29217;52.586;13.442;2023-01-26T14:33:51;15.88;;;6.82;;
43626;SDS011;29217;52.586;13.442;2023-01-26T14:36:21;20.77;;;6.75;;
43626;SDS011;29217;52.586;13.442;2023-01-26T14:38:48;14.40;;;7.15;;
43626;SDS011;29217;52.586;13.442;2023-01-26T14:41:22;15.77;;;7.47;;
43626;SDS011;29217;52.586;13.442;2023-01-26T14:43:52;16.73;;;8.00;;
43626;SDS011;29217;52.586;13.442;2023-01-26T14:46:23;17.20;;;7.82;;
43626;SDS011;29217;52.586;13.442;2023-01-26T14:48:55;19.05;;;8.65;;
43626;SDS011;29217;52.586;13.442;2023-01-26T14:51:23;19.08;;;8.05;;
43626;SDS011;29217;52.586;13.442;2023-01-26T14:53:51;17.75;;;7.97;;
43626;SDS011;29217;52.586;13.442;2023-01-26T14:56:19;18.73;;;9.15;;
43626;SDS011;29217;52.586;13.442;2023-01-26T14:58:48;21.60;;;9.63;;
43626;SDS011;29217;52.586;13.442;2023-01-26T15:01:18;15.27;;;7.70;;
43626;SDS011;29217;52.586;13.442;2023-01-26T15:03:45;21.35;;;10.20;;
43626;SDS011;29217;52.586;13.442;2023-01-26T15:08:38;20.45;;;8.13;;
43626;SDS011;29217;52.586;13.442;2023-01-26T15:11:04;15.70;;;7.70;;
43626;SDS011;29217;52.586;13.442;2023-01-26T15:13:53;24.60;;;9.30;;
43626;SDS011;29217;52.586;13.442;2023-01-26T15:16:20;15.20;;;7.53;;
43626;SDS011;29217;52.586;13.442;2023-01-26T15:18:56;16.65;;;7.55;;
43626;SDS011;29217;52.586;13.442;2023-01-26T15:21:23;19.13;;;9.23;;
43626;SDS011;29217;52.586;13.442;2023-01-26T15:23:51;19.00;;;8.13;;
43626;SDS011;29217;52.586;13.442;2023-01-26T15:26:32;20.50;;;9.30;;
43626;SDS011;29217;52.586;13.442;2023-01-26T15:29:00;23.63;;;10.75;;
43626;SDS011;29217;52.586;13.442;2023-01-26T15:31:34;17.48;;;8.60;;
43626;SDS011;29217;52.586;13.442;2023-01-26T15:34:01;27.88;;;10.10;;
43626;SDS011;29217;52.586;13.442;2023-01-26T15:38:58;22.35;;;9.43;;
43626;SDS011;29217;52.586;13.442;2023-01-26T15:41:24;20.15;;;8.63;;
43626;SDS011;29217;52.586;13.442;2023-01-26T15:43:50;19.73;;;8.68;;
43626;SDS011;29217;52.586;13.442;2023-01-26T15:46:16;28.33;;;11.88;;
43626;SDS011;29217;52.586;13.442;2023-01-26T15:48:42;25.88;;;10.88;;
43626;SDS011;29217;52.586;13.442;2023-01-26T15:51:11;21.58;;;9.13;;
43626;SDS011;29217;52.586;13.442;2023-01-26T15:53:37;23.90;;;9.60;;
43626;SDS011;29217;52.586;13.442;2023-01-26T15:56:04;21.42;;;8.50;;
43626;SDS011;29217;52.586;13.442;2023-01-26T15:58:30;22.23;;;8.90;;
43626;SDS011;29217;52.586;13.442;2023-01-26T16:00:58;23.00;;;8.60;;
43626;SDS011;29217;52.586;13.442;2023-01-26T16:03:25;24.75;;;9.43;;